sensor_id;sensor_type;location;lat;lon;timestamp;P1;durP1;ratioP1;P2;durP2;ratioP2
80231;SDS011;74189;42.124;24.752;2023-11-19T00:02:13;4.43;;;3.50;;
80231;SDS011;74189;42.124;24.752;2023-11-19T00:04:39;5.28;;;3.80;;
80231;SDS011;74189;42.124;24.752;2023-11-19T00:07:05;3.88;;;3.47;;
80231;SDS011;74189;42.124;24.752;2023-11-19T00:09:33;4.63;;;3.60;;
80231;SDS011;74189;42.124;24.752;2023-11-19T00:12:01;4.30;;;3.72;;
80231;SDS011;74189;42.124;24.752;2023-11-19T00:14:27;5.90;;;3.70;;
80231;SDS011;74189;42.124;24.752;2023-11-19T00:16:54;4.28;;;3.63;;
80231;SDS011;74189;42.124;24.752;2023-11-19T00:19:19;4.07;;;3.40;;
80231;SDS011;74189;42.124;24.752;2023-11-19T00:21:46;3.70;;;3.33;;
80231;SDS011;74189;42.124;24.752;2023-11-19T00:24:11;3.80;;;3.40;;
80231;SDS011;74189;42.124;24.752;2023-11-19T00:26:38;4.85;;;3.47;;
80231;SDS011;74189;42.124;24.752;2023-11-19T00:29:03;3.40;;;3.10;;
80231;SDS011;74189;42.124;24.752;2023-11-19T00:31:29;4.18;;;3.78;;
80231;SDS011;74189;42.124;24.752;2023-11-19T00:33:55;6.40;;;3.50;;
80231;SDS011;74189;42.124;24.752;2023-11-19T00:36:20;4.18;;;3.53;;
80231;SDS011;74189;42.124;24.752;2023-11-19T00:38:48;4.97;;;3.83;;
80231;SDS011;74189;42.124;24.752;2023-11-19T00:41:15;4.18;;;3.30;;
80231;SDS011;74189;42.124;24.752;2023-11-19T00:43:41;4.93;;;3.60;;
80231;SDS011;74189;42.124;24.752;2023-11-19T00:46:07;4.25;;;3.63;;
80231;SDS011;74189;42.124;24.752;2023-11-19T00:48:33;3.65;;;3.17;;
80231;SDS011;74189;42.124;24.752;2023-11-19T00:50:59;4.03;;;3.63;;
80231;SDS011;74189;42.124;24.752;2023-11-19T00:53:24;4.10;;;3.70;;
80231;SDS011;74189;42.124;24.752;2023-11-19T00:55:50;3.85;;;3.45;;
80231;SDS011;74189;42.124;24.752;2023-11-19T00:58:16;4.75;;;3.45;;
80231;SDS011;74189;42.124;24.752;2023-11-19T01:00:43;3.70;;;3.40;;
80231;SDS011;74189;42.124;24.752;2023-11-19T01:03:09;4.82;;;3.75;;
80231;SDS011;74189;42.124;24.752;2023-11-19T01:05:36;3.90;;;3.50;;
80231;SDS011;74189;42.124;24.752;2023-11-19T01:08:02;4.50;;;3.60;;
80231;SDS011;74189;42.124;24.752;2023-11-19T01:10:29;4.75;;;3.60;;
80231;SDS011;74189;42.124;24.752;2023-11-19T01:12:55;5.38;;;3.65;;
80231;SDS011;74189;42.124;24.752;2023-11-19T01:15:21;4.43;;;3.72;;
80231;SDS011;74189;42.124;24.752;2023-11-19T01:17:47;4.20;;;3.80;;
80231;SDS011;74189;42.124;24.752;2023-11-19T01:20:13;3.60;;;3.25;;
80231;SDS011;74189;42.124;24.752;2023-11-19T01:22:39;3.80;;;3.45;;
80231;SDS011;74189;42.124;24.752;2023-11-19T01:25:05;4.13;;;3.65;;
80231;SDS011;74189;42.124;24.752;2023-11-19T01:27:32;3.75;;;3.35;;
80231;SDS011;74189;42.124;24.752;2023-11-19T01:30:01;4.47;;;3.63;;
80231;SDS011;74189;42.124;24.752;2023-11-19T01:32:34;4.28;;;3.65;;
80231;SDS011;74189;42.124;24.752;2023-11-19T01:35:01;5.13;;;3.40;;
80231;SDS011;74189;42.124;24.752;2023-11-19T01:37:27;4.43;;;3.92;;
80231;SDS011;74189;42.124;24.752;2023-11-19T01:39:53;5.55;;;3.55;;
80231;SDS011;74189;42.124;24.752;2023-11-19T01:42:19;5.15;;;3.78;;
80231;SDS011;74189;42.124;24.752;2023-11-19T01:44:54;6.70;;;3.33;;
80231;SDS011;74189;42.124;24.752;2023-11-19T01:47:24;5.30;;;3.50;;
80231;SDS011;74189;42.124;24.752;2023-11-19T01:49:52;4.30;;;3.42;;
80231;SDS011;74189;42.124;24.752;2023-11-19T01:52:18;5.60;;;3.83;;
80231;SDS011;74189;42.124;24.752;2023-11-19T01:54:45;4.20;;;3.42;;
80231;SDS011;74189;42.124;24.752;2023-11-19T01:57:12;3.67;;;3.30;;
80231;SDS011;74189;42.124;24.752;2023-11-19T01:59:38;3.58;;;3.25;;
80231;SDS011;74189;42.124;24.752;2023-11-19T02:02:05;4.28;;;3.50;;
80231;SDS011;74189;42.124;24.752;2023-11-19T02:04:31;4.38;;;3.58;;
80231;SDS011;74189;42.124;24.752;2023-11-19T02:06:57;3.75;;;3.40;;
80231;SDS011;74189;42.124;24.752;2023-11-19T02:09:24;3.70;;;3.40;;
80231;SDS011;74189;42.124;24.752;2023-11-19T02:11:49;4.25;;;3.60;;
80231;SDS011;74189;42.124;24.752;2023-11-19T02:14:19;4.18;;;3.33;;
80231;SDS011;74189;42.124;24.752;2023-11-19T02:16:50;4.30;;;3.33;;
80231;SDS011;74189;42.124;24.752;2023-11-19T02:19:18;3.90;;;3.55;;
80231;SDS011;74189;42.124;24.752;2023-11-19T02:21:44;4.25;;;3.60;;
80231;SDS011;74189;42.124;24.752;2023-11-19T02:24:10;5.00;;;3.45;;
80231;SDS011;74189;42.124;24.752;2023-11-19T02:27:01;7.38;;;3.50;;
80231;SDS011;74189;42.124;24.752;2023-11-19T02:29:27;3.88;;;3.45;;
80231;SDS011;74189;42.124;24.752;2023-11-19T02:31:53;3.47;;;3.13;;
80231;SDS011;74189;42.124;24.752;2023-11-19T02:34:20;5.03;;;3.60;;
80231;SDS011;74189;42.124;24.752;2023-11-19T02:36:46;3.88;;;3.47;;
80231;SDS011;74189;42.124;24.752;2023-11-19T02:39:12;3.88;;;3.47;;
80231;SDS011;74189;42.124;24.752;2023-11-19T02:41:38;4.03;;;3.63;;
80231;SDS011;74189;42.124;24.752;2023-11-19T02:44:05;4.68;;;3.70;;
80231;SDS011;74189;42.124;24.752;2023-11-19T02:46:31;5.78;;;3.55;;
80231;SDS011;74189;42.124;24.752;2023-11-19T02:48:57;5.07;;;3.33;;
80231;SDS011;74189;42.124;24.752;2023-11-19T02:51:22;3.72;;;3.33;;
80231;SDS011;74189;42.124;24.752;2023-11-19T02:53:48;3.92;;;3.53;;
80231;SDS011;74189;42.124;24.752;2023-11-19T02:56:14;5.20;;;3.65;;
80231;SDS011;74189;42.124;24.752;2023-11-19T02:58:50;3.40;;;3.10;;
80231;SDS011;74189;42.124;24.752;2023-11-19T03:01:23;4.70;;;3.40;;
80231;SDS011;74189;42.124;24.752;2023-11-19T03:03:54;4.38;;;3.40;;
80231;SDS011;74189;42.124;24.752;2023-11-19T03:06:22;5.10;;;3.55;;
80231;SDS011;74189;42.124;24.752;2023-11-19T03:08:47;7.13;;;3.75;;
80231;SDS011;74189;42.124;24.752;2023-11-19T03:11:14;3.50;;;3.20;;
80231;SDS011;74189;42.124;24.752;2023-11-19T03:13:40;3.72;;;3.42;;
80231;SDS011;74189;42.124;24.752;2023-11-19T03:16:05;3.50;;;3.20;;
80231;SDS011;74189;42.124;24.752;2023-11-19T03:18:31;4.15;;;3.40;;
80231;SDS011;74189;42.124;24.752;2023-11-19T03:20:58;4.47;;;3.55;;
80231;SDS011;74189;42.124;24.752;2023-11-19T03:23:23;3.95;;;3.30;;
80231;SDS011;74189;42.124;24.752;2023-11-19T03:25:52;4.00;;;3.58;;
80231;SDS011;74189;42.124;24.752;2023-11-19T03:28:18;4.07;;;3.45;;
80231;SDS011;74189;42.124;24.752;2023-11-19T03:30:44;3.80;;;3.40;;
80231;SDS011;74189;42.124;24.752;2023-11-19T03:33:10;3.95;;;3.55;;
80231;SDS011;74189;42.124;24.752;2023-11-19T03:35:35;4.03;;;3.45;;
80231;SDS011;74189;42.124;24.752;2023-11-19T03:38:01;6.30;;;3.47;;
80231;SDS011;74189;42.124;24.752;2023-11-19T03:40:27;4.47;;;3.45;;
80231;SDS011;74189;42.124;24.752;2023-11-19T03:42:53;4.20;;;3.80;;
80231;SDS011;74189;42.124;24.752;2023-11-19T03:45:22;3.67;;;3.30;;
80231;SDS011;74189;42.124;24.752;2023-11-19T03:47:47;3.60;;;3.30;;
80231;SDS011;74189;42.124;24.752;2023-11-19T03:50:15;4.90;;;3.35;;
80231;SDS011;74189;42.124;24.752;2023-11-19T03:52:41;4.72;;;3.38;;
80231;SDS011;74189;42.124;24.752;2023-11-19T03:55:07;4.15;;;3.72;;
80231;SDS011;74189;42.124;24.752;2023-11-19T03:57:34;4.30;;;3.75;;
80231;SDS011;74189;42.124;24.752;2023-11-19T03:59:59;4.63;;;3.60;;
80231;SDS011;74189;42.124;24.752;2023-11-19T04:02:32;3.58;;;3.28;;
80231;SDS011;74189;42.124;24.752;2023-11-19T04:04:58;5.75;;;3.63;;
80231;SDS011;74189;42.124;24.752;2023-11-19T04:07:24;4.43;;;3.65;;
80231;SDS011;74189;42.124;24.752;2023-11-19T04:09:49;4.85;;;4.15;;
80231;SDS011;74189;42.124;24.752;2023-11-19T04:12:15;4.10;;;3.50;;
80231;SDS011;74189;42.124;24.752;2023-11-19T04:14:41;4.63;;;3.38;;
80231;SDS011;74189;42.124;24.752;2023-11-19T04:17:07;4.38;;;3.53;;
80231;SDS011;74189;42.124;24.752;2023-11-19T04:19:33;4.95;;;3.70;;
80231;SDS011;74189;42.124;24.752;2023-11-19T04:21:58;5.28;;;3.65;;
80231;SDS011;74189;42.124;24.752;2023-11-19T04:24:24;7.00;;;3.90;;
80231;SDS011;74189;42.124;24.752;2023-11-19T04:26:49;4.35;;;3.50;;
80231;SDS011;74189;42.124;24.752;2023-11-19T04:29:16;4.72;;;3.58;;
80231;SDS011;74189;42.124;24.752;2023-11-19T04:31:44;4.78;;;3.88;;
80231;SDS011;74189;42.124;24.752;2023-11-19T04:34:10;4.32;;;3.80;;
80231;SDS011;74189;42.124;24.752;2023-11-19T04:36:37;4.72;;;3.63;;
80231;SDS011;74189;42.124;24.752;2023-11-19T04:39:03;4.72;;;3.60;;
80231;SDS011;74189;42.124;24.752;2023-11-19T04:41:46;3.90;;;3.50;;
80231;SDS011;74189;42.124;24.752;2023-11-19T04:46:40;7.43;;;3.60;;
80231;SDS011;74189;42.124;24.752;2023-11-19T04:49:08;4.72;;;3.83;;
80231;SDS011;74189;42.124;24.752;2023-11-19T04:51:39;4.30;;;3.70;;
80231;SDS011;74189;42.124;24.752;2023-11-19T04:54:06;4.35;;;3.30;;
80231;SDS011;74189;42.124;24.752;2023-11-19T04:56:33;4.07;;;3.63;;
80231;SDS011;74189;42.124;24.752;2023-11-19T04:59:00;7.47;;;3.63;;
80231;SDS011;74189;42.124;24.752;2023-11-19T05:01:26;3.90;;;3.50;;
80231;SDS011;74189;42.124;24.752;2023-11-19T05:03:51;4.07;;;3.20;;
80231;SDS011;74189;42.124;24.752;2023-11-19T05:06:17;3.92;;;3.50;;
80231;SDS011;74189;42.124;24.752;2023-11-19T05:08:43;4.30;;;3.50;;
80231;SDS011;74189;42.124;24.752;2023-11-19T05:11:09;4.20;;;3.50;;
80231;SDS011;74189;42.124;24.752;2023-11-19T05:13:37;4.18;;;3.50;;
80231;SDS011;74189;42.124;24.752;2023-11-19T05:16:03;3.70;;;3.38;;
80231;SDS011;74189;42.124;24.752;2023-11-19T05:18:29;4.40;;;3.40;;
80231;SDS011;74189;42.124;24.752;2023-11-19T05:20:54;5.00;;;3.70;;
80231;SDS011;74189;42.124;24.752;2023-11-19T05:23:20;4.18;;;3.70;;
80231;SDS011;74189;42.124;24.752;2023-11-19T05:25:46;5.82;;;3.70;;
80231;SDS011;74189;42.124;24.752;2023-11-19T05:28:12;3.90;;;3.50;;
80231;SDS011;74189;42.124;24.752;2023-11-19T05:30:39;5.90;;;3.38;;
80231;SDS011;74189;42.124;24.752;2023-11-19T05:33:05;4.20;;;3.60;;
80231;SDS011;74189;42.124;24.752;2023-11-19T05:35:33;3.60;;;3.28;;
80231;SDS011;74189;42.124;24.752;2023-11-19T05:37:59;4.47;;;3.60;;
80231;SDS011;74189;42.124;24.752;2023-11-19T05:40:25;4.22;;;3.50;;
80231;SDS011;74189;42.124;24.752;2023-11-19T05:42:51;4.25;;;3.40;;
80231;SDS011;74189;42.124;24.752;2023-11-19T05:45:16;5.47;;;3.75;;
80231;SDS011;74189;42.124;24.752;2023-11-19T05:47:42;4.10;;;3.60;;
80231;SDS011;74189;42.124;24.752;2023-11-19T05:50:08;4.20;;;3.80;;
80231;SDS011;74189;42.124;24.752;2023-11-19T05:52:35;4.13;;;3.67;;
80231;SDS011;74189;42.124;24.752;2023-11-19T05:55:01;5.18;;;3.78;;
80231;SDS011;74189;42.124;24.752;2023-11-19T05:57:30;5.10;;;4.00;;
80231;SDS011;74189;42.124;24.752;2023-11-19T05:59:56;4.30;;;3.60;;
80231;SDS011;74189;42.124;24.752;2023-11-19T06:02:22;5.30;;;3.53;;
80231;SDS011;74189;42.124;24.752;2023-11-19T06:04:47;5.40;;;3.78;;
80231;SDS011;74189;42.124;24.752;2023-11-19T06:07:15;4.10;;;3.70;;
80231;SDS011;74189;42.124;24.752;2023-11-19T06:09:40;3.97;;;3.53;;
80231;SDS011;74189;42.124;24.752;2023-11-19T06:12:06;4.00;;;3.60;;
80231;SDS011;74189;42.124;24.752;2023-11-19T06:14:32;4.10;;;3.70;;
80231;SDS011;74189;42.124;24.752;2023-11-19T06:16:58;5.97;;;3.90;;
80231;SDS011;74189;42.124;24.752;2023-11-19T06:19:24;5.93;;;4.30;;
80231;SDS011;74189;42.124;24.752;2023-11-19T06:21:50;5.13;;;3.70;;
80231;SDS011;74189;42.124;24.752;2023-11-19T06:24:16;5.15;;;3.38;;
80231;SDS011;74189;42.124;24.752;2023-11-19T06:26:42;4.15;;;3.70;;
80231;SDS011;74189;42.124;24.752;2023-11-19T06:29:08;5.20;;;3.75;;
80231;SDS011;74189;42.124;24.752;2023-11-19T06:31:33;5.07;;;3.97;;
80231;SDS011;74189;42.124;24.752;2023-11-19T06:33:59;5.28;;;3.97;;
80231;SDS011;74189;42.124;24.752;2023-11-19T06:36:24;4.63;;;3.72;;
80231;SDS011;74189;42.124;24.752;2023-11-19T06:38:51;5.28;;;4.13;;
80231;SDS011;74189;42.124;24.752;2023-11-19T06:41:17;4.20;;;3.80;;
80231;SDS011;74189;42.124;24.752;2023-11-19T06:43:43;5.72;;;4.05;;
80231;SDS011;74189;42.124;24.752;2023-11-19T06:46:17;5.22;;;4.20;;
80231;SDS011;74189;42.124;24.752;2023-11-19T06:48:43;4.47;;;3.50;;
80231;SDS011;74189;42.124;24.752;2023-11-19T06:51:10;4.93;;;4.07;;
80231;SDS011;74189;42.124;24.752;2023-11-19T06:53:38;6.10;;;3.90;;
80231;SDS011;74189;42.124;24.752;2023-11-19T06:56:05;6.85;;;3.72;;
80231;SDS011;74189;42.124;24.752;2023-11-19T06:58:42;6.45;;;4.00;;
80231;SDS011;74189;42.124;24.752;2023-11-19T07:01:07;5.65;;;4.03;;
80231;SDS011;74189;42.124;24.752;2023-11-19T07:03:34;5.10;;;4.03;;
80231;SDS011;74189;42.124;24.752;2023-11-19T07:06:00;5.65;;;4.10;;
80231;SDS011;74189;42.124;24.752;2023-11-19T07:08:26;5.38;;;4.18;;
80231;SDS011;74189;42.124;24.752;2023-11-19T07:10:51;4.95;;;3.90;;
80231;SDS011;74189;42.124;24.752;2023-11-19T07:13:18;4.70;;;3.90;;
80231;SDS011;74189;42.124;24.752;2023-11-19T07:15:44;8.35;;;4.10;;
80231;SDS011;74189;42.124;24.752;2023-11-19T07:18:10;4.68;;;3.90;;
80231;SDS011;74189;42.124;24.752;2023-11-19T07:20:36;5.53;;;3.95;;
80231;SDS011;74189;42.124;24.752;2023-11-19T07:23:03;4.90;;;3.72;;
80231;SDS011;74189;42.124;24.752;2023-11-19T07:25:29;5.82;;;4.10;;
80231;SDS011;74189;42.124;24.752;2023-11-19T07:27:54;4.47;;;3.90;;
80231;SDS011;74189;42.124;24.752;2023-11-19T07:30:21;4.43;;;3.70;;
80231;SDS011;74189;42.124;24.752;2023-11-19T07:32:47;5.35;;;4.15;;
80231;SDS011;74189;42.124;24.752;2023-11-19T07:35:13;5.60;;;4.07;;
80231;SDS011;74189;42.124;24.752;2023-11-19T07:37:40;6.07;;;4.43;;
80231;SDS011;74189;42.124;24.752;2023-11-19T07:40:07;6.10;;;4.30;;
80231;SDS011;74189;42.124;24.752;2023-11-19T07:42:33;5.00;;;4.20;;
80231;SDS011;74189;42.124;24.752;2023-11-19T07:44:58;5.57;;;4.32;;
80231;SDS011;74189;42.124;24.752;2023-11-19T07:47:24;5.00;;;4.10;;
80231;SDS011;74189;42.124;24.752;2023-11-19T07:49:50;4.00;;;3.60;;
80231;SDS011;74189;42.124;24.752;2023-11-19T07:52:16;5.93;;;3.97;;
80231;SDS011;74189;42.124;24.752;2023-11-19T07:54:41;6.25;;;4.22;;
80231;SDS011;74189;42.124;24.752;2023-11-19T07:57:07;5.80;;;4.30;;
80231;SDS011;74189;42.124;24.752;2023-11-19T07:59:36;6.82;;;4.28;;
80231;SDS011;74189;42.124;24.752;2023-11-19T08:02:01;6.03;;;4.03;;
80231;SDS011;74189;42.124;24.752;2023-11-19T08:04:28;6.72;;;4.65;;
80231;SDS011;74189;42.124;24.752;2023-11-19T08:06:54;7.57;;;4.30;;
80231;SDS011;74189;42.124;24.752;2023-11-19T08:09:19;9.30;;;4.00;;
80231;SDS011;74189;42.124;24.752;2023-11-19T08:11:46;4.10;;;3.70;;
80231;SDS011;74189;42.124;24.752;2023-11-19T08:14:11;7.72;;;3.90;;
80231;SDS011;74189;42.124;24.752;2023-11-19T08:16:38;5.43;;;3.92;;
80231;SDS011;74189;42.124;24.752;2023-11-19T08:19:04;6.88;;;3.92;;
80231;SDS011;74189;42.124;24.752;2023-11-19T08:21:30;9.00;;;4.53;;
80231;SDS011;74189;42.124;24.752;2023-11-19T08:23:56;5.78;;;4.05;;
80231;SDS011;74189;42.124;24.752;2023-11-19T08:26:21;5.85;;;3.67;;
80231;SDS011;74189;42.124;24.752;2023-11-19T08:28:47;4.85;;;4.03;;
80231;SDS011;74189;42.124;24.752;2023-11-19T08:31:13;5.78;;;4.60;;
80231;SDS011;74189;42.124;24.752;2023-11-19T08:33:38;8.45;;;4.40;;
80231;SDS011;74189;42.124;24.752;2023-11-19T08:36:04;5.75;;;4.47;;
80231;SDS011;74189;42.124;24.752;2023-11-19T08:38:31;6.50;;;4.45;;
80231;SDS011;74189;42.124;24.752;2023-11-19T08:40:57;5.38;;;4.30;;
80231;SDS011;74189;42.124;24.752;2023-11-19T08:43:25;7.07;;;4.68;;
80231;SDS011;74189;42.124;24.752;2023-11-19T08:45:51;8.43;;;4.38;;
80231;SDS011;74189;42.124;24.752;2023-11-19T08:48:16;6.93;;;4.30;;
80231;SDS011;74189;42.124;24.752;2023-11-19T08:50:42;8.23;;;4.82;;
80231;SDS011;74189;42.124;24.752;2023-11-19T08:53:08;5.13;;;4.13;;
80231;SDS011;74189;42.124;24.752;2023-11-19T08:55:33;7.38;;;4.65;;
80231;SDS011;74189;42.124;24.752;2023-11-19T08:57:59;6.25;;;4.88;;
80231;SDS011;74189;42.124;24.752;2023-11-19T09:00:25;6.53;;;4.40;;
80231;SDS011;74189;42.124;24.752;2023-11-19T09:02:50;6.50;;;4.78;;
80231;SDS011;74189;42.124;24.752;2023-11-19T09:05:16;5.35;;;4.57;;
80231;SDS011;74189;42.124;24.752;2023-11-19T09:07:42;4.75;;;4.20;;
80231;SDS011;74189;42.124;24.752;2023-11-19T09:10:07;4.88;;;4.05;;
80231;SDS011;74189;42.124;24.752;2023-11-19T09:12:33;6.25;;;4.07;;
80231;SDS011;74189;42.124;24.752;2023-11-19T09:15:00;4.13;;;3.70;;
80231;SDS011;74189;42.124;24.752;2023-11-19T09:17:25;6.95;;;4.35;;
80231;SDS011;74189;42.124;24.752;2023-11-19T09:19:51;9.23;;;4.30;;
80231;SDS011;74189;42.124;24.752;2023-11-19T09:22:17;7.63;;;4.63;;
80231;SDS011;74189;42.124;24.752;2023-11-19T09:24:42;6.97;;;4.65;;
80231;SDS011;74189;42.124;24.752;2023-11-19T09:27:09;9.70;;;4.30;;
80231;SDS011;74189;42.124;24.752;2023-11-19T09:29:35;5.05;;;4.03;;
80231;SDS011;74189;42.124;24.752;2023-11-19T09:32:01;4.82;;;3.90;;
80231;SDS011;74189;42.124;24.752;2023-11-19T09:34:27;5.97;;;4.50;;
80231;SDS011;74189;42.124;24.752;2023-11-19T09:36:53;5.13;;;3.90;;
80231;SDS011;74189;42.124;24.752;2023-11-19T09:39:18;4.75;;;3.92;;
80231;SDS011;74189;42.124;24.752;2023-11-19T09:41:45;4.95;;;3.80;;
80231;SDS011;74189;42.124;24.752;2023-11-19T09:44:11;4.72;;;3.80;;
80231;SDS011;74189;42.124;24.752;2023-11-19T09:46:40;4.82;;;4.05;;
80231;SDS011;74189;42.124;24.752;2023-11-19T09:49:06;6.05;;;4.00;;
80231;SDS011;74189;42.124;24.752;2023-11-19T09:51:34;5.43;;;4.00;;
80231;SDS011;74189;42.124;24.752;2023-11-19T09:54:01;5.32;;;4.00;;
80231;SDS011;74189;42.124;24.752;2023-11-19T09:56:27;6.05;;;4.32;;
80231;SDS011;74189;42.124;24.752;2023-11-19T09:58:58;7.40;;;5.18;;
80231;SDS011;74189;42.124;24.752;2023-11-19T10:01:24;5.13;;;4.03;;
80231;SDS011;74189;42.124;24.752;2023-11-19T10:03:50;5.88;;;4.20;;
80231;SDS011;74189;42.124;24.752;2023-11-19T10:06:20;5.00;;;3.97;;
80231;SDS011;74189;42.124;24.752;2023-11-19T10:08:46;6.50;;;4.50;;
80231;SDS011;74189;42.124;24.752;2023-11-19T10:11:12;6.90;;;4.50;;
80231;SDS011;74189;42.124;24.752;2023-11-19T10:13:38;6.15;;;3.67;;
80231;SDS011;74189;42.124;24.752;2023-11-19T10:16:07;8.20;;;4.10;;
80231;SDS011;74189;42.124;24.752;2023-11-19T10:18:45;5.82;;;4.30;;
80231;SDS011;74189;42.124;24.752;2023-11-19T10:23:48;9.73;;;3.88;;
80231;SDS011;74189;42.124;24.752;2023-11-19T10:26:19;5.32;;;3.72;;
80231;SDS011;74189;42.124;24.752;2023-11-19T10:28:46;8.50;;;3.75;;
80231;SDS011;74189;42.124;24.752;2023-11-19T10:31:16;4.50;;;3.60;;
80231;SDS011;74189;42.124;24.752;2023-11-19T10:33:43;5.15;;;4.18;;
80231;SDS011;74189;42.124;24.752;2023-11-19T10:36:12;4.93;;;3.97;;
80231;SDS011;74189;42.124;24.752;2023-11-19T10:38:38;4.65;;;3.90;;
80231;SDS011;74189;42.124;24.752;2023-11-19T10:41:05;5.60;;;3.60;;
80231;SDS011;74189;42.124;24.752;2023-11-19T10:43:31;4.57;;;3.70;;
80231;SDS011;74189;42.124;24.752;2023-11-19T10:46:09;4.53;;;3.55;;
80231;SDS011;74189;42.124;24.752;2023-11-19T10:48:35;3.85;;;3.45;;
80231;SDS011;74189;42.124;24.752;2023-11-19T10:51:01;9.68;;;4.28;;
80231;SDS011;74189;42.124;24.752;2023-11-19T10:53:32;5.72;;;3.80;;
80231;SDS011;74189;42.124;24.752;2023-11-19T10:56:01;4.75;;;3.60;;
80231;SDS011;74189;42.124;24.752;2023-11-19T10:58:29;3.60;;;3.30;;
80231;SDS011;74189;42.124;24.752;2023-11-19T11:00:57;8.40;;;3.90;;
80231;SDS011;74189;42.124;24.752;2023-11-19T11:03:36;5.25;;;3.83;;
80231;SDS011;74189;42.124;24.752;2023-11-19T11:06:05;6.80;;;3.53;;
80231;SDS011;74189;42.124;24.752;2023-11-19T11:08:31;4.60;;;3.72;;
80231;SDS011;74189;42.124;24.752;2023-11-19T11:11:00;6.63;;;3.95;;
80231;SDS011;74189;42.124;24.752;2023-11-19T11:13:29;5.55;;;3.75;;
80231;SDS011;74189;42.124;24.752;2023-11-19T11:15:56;5.40;;;3.85;;
80231;SDS011;74189;42.124;24.752;2023-11-19T11:18:26;6.15;;;3.75;;
80231;SDS011;74189;42.124;24.752;2023-11-19T11:20:54;5.50;;;3.58;;
80231;SDS011;74189;42.124;24.752;2023-11-19T11:31:55;7.90;;;3.90;;
80231;SDS011;74189;42.124;24.752;2023-11-19T11:37:46;3.70;;;3.40;;
80231;SDS011;74189;42.124;24.752;2023-11-19T11:40:15;4.10;;;3.70;;
80231;SDS011;74189;42.124;24.752;2023-11-19T11:42:41;5.80;;;3.60;;
80231;SDS011;74189;42.124;24.752;2023-11-19T11:45:16;3.75;;;3.40;;
80231;SDS011;74189;42.124;24.752;2023-11-19T11:50:07;7.00;;;3.70;;
80231;SDS011;74189;42.124;24.752;2023-11-19T11:55:28;5.53;;;4.03;;
80231;SDS011;74189;42.124;24.752;2023-11-19T11:57:57;8.18;;;4.13;;
80231;SDS011;74189;42.124;24.752;2023-11-19T12:00:26;6.05;;;3.90;;
80231;SDS011;74189;42.124;24.752;2023-11-19T12:02:56;5.28;;;3.60;;
80231;SDS011;74189;42.124;24.752;2023-11-19T12:05:22;5.60;;;3.60;;
80231;SDS011;74189;42.124;24.752;2023-11-19T12:08:01;4.60;;;3.40;;
80231;SDS011;74189;42.124;24.752;2023-11-19T12:10:31;5.13;;;4.22;;
80231;SDS011;74189;42.124;24.752;2023-11-19T12:13:02;7.50;;;3.92;;
80231;SDS011;74189;42.124;24.752;2023-11-19T12:15:31;5.05;;;3.67;;
80231;SDS011;74189;42.124;24.752;2023-11-19T12:17:57;4.78;;;3.90;;
80231;SDS011;74189;42.124;24.752;2023-11-19T12:20:24;4.78;;;3.78;;
80231;SDS011;74189;42.124;24.752;2023-11-19T12:22:51;6.82;;;3.88;;
80231;SDS011;74189;42.124;24.752;2023-11-19T12:25:18;6.13;;;3.63;;
80231;SDS011;74189;42.124;24.752;2023-11-19T12:27:48;5.07;;;3.95;;
80231;SDS011;74189;42.124;24.752;2023-11-19T12:30:22;4.03;;;3.55;;
80231;SDS011;74189;42.124;24.752;2023-11-19T12:32:49;5.80;;;3.80;;
80231;SDS011;74189;42.124;24.752;2023-11-19T12:35:15;4.20;;;3.45;;
80231;SDS011;74189;42.124;24.752;2023-11-19T12:37:44;4.82;;;3.72;;
80231;SDS011;74189;42.124;24.752;2023-11-19T12:40:12;5.10;;;3.50;;
80231;SDS011;74189;42.124;24.752;2023-11-19T12:42:42;8.20;;;3.88;;
80231;SDS011;74189;42.124;24.752;2023-11-19T12:45:09;4.82;;;4.00;;
80231;SDS011;74189;42.124;24.752;2023-11-19T12:47:38;4.78;;;3.70;;
80231;SDS011;74189;42.124;24.752;2023-11-19T12:50:05;8.38;;;3.70;;
80231;SDS011;74189;42.124;24.752;2023-11-19T12:52:33;7.13;;;3.60;;
80231;SDS011;74189;42.124;24.752;2023-11-19T12:55:00;4.70;;;3.75;;
80231;SDS011;74189;42.124;24.752;2023-11-19T12:57:40;6.35;;;4.65;;
80231;SDS011;74189;42.124;24.752;2023-11-19T13:00:06;5.57;;;4.43;;
80231;SDS011;74189;42.124;24.752;2023-11-19T13:02:44;6.40;;;4.53;;
80231;SDS011;74189;42.124;24.752;2023-11-19T13:05:27;5.97;;;4.30;;
80231;SDS011;74189;42.124;24.752;2023-11-19T13:10:30;5.63;;;4.40;;
80231;SDS011;74189;42.124;24.752;2023-11-19T13:13:00;5.68;;;4.60;;
80231;SDS011;74189;42.124;24.752;2023-11-19T13:15:35;6.80;;;4.75;;
80231;SDS011;74189;42.124;24.752;2023-11-19T13:18:01;6.88;;;5.00;;
80231;SDS011;74189;42.124;24.752;2023-11-19T13:20:27;6.07;;;4.45;;
80231;SDS011;74189;42.124;24.752;2023-11-19T13:23:03;7.75;;;4.57;;
80231;SDS011;74189;42.124;24.752;2023-11-19T13:25:30;8.32;;;4.70;;
80231;SDS011;74189;42.124;24.752;2023-11-19T13:27:57;8.02;;;4.72;;
80231;SDS011;74189;42.124;24.752;2023-11-19T13:30:24;6.05;;;4.47;;
80231;SDS011;74189;42.124;24.752;2023-11-19T13:32:51;6.05;;;4.60;;
80231;SDS011;74189;42.124;24.752;2023-11-19T13:35:17;6.32;;;4.53;;
80231;SDS011;74189;42.124;24.752;2023-11-19T13:37:43;6.75;;;4.70;;
80231;SDS011;74189;42.124;24.752;2023-11-19T13:40:10;6.85;;;4.90;;
80231;SDS011;74189;42.124;24.752;2023-11-19T13:42:38;6.70;;;4.70;;
80231;SDS011;74189;42.124;24.752;2023-11-19T13:45:07;7.53;;;4.57;;
80231;SDS011;74189;42.124;24.752;2023-11-19T13:47:35;6.07;;;3.97;;
80231;SDS011;74189;42.124;24.752;2023-11-19T13:50:01;6.45;;;3.80;;
80231;SDS011;74189;42.124;24.752;2023-11-19T13:52:31;6.65;;;3.75;;
80231;SDS011;74189;42.124;24.752;2023-11-19T13:54:56;5.50;;;3.70;;
80231;SDS011;74189;42.124;24.752;2023-11-19T13:57:22;5.72;;;3.63;;
80231;SDS011;74189;42.124;24.752;2023-11-19T13:59:47;4.32;;;3.47;;
80231;SDS011;74189;42.124;24.752;2023-11-19T14:02:13;7.30;;;3.55;;
80231;SDS011;74189;42.124;24.752;2023-11-19T14:04:39;4.45;;;3.40;;
80231;SDS011;74189;42.124;24.752;2023-11-19T14:07:04;6.75;;;3.70;;
80231;SDS011;74189;42.124;24.752;2023-11-19T14:09:30;5.68;;;3.83;;
80231;SDS011;74189;42.124;24.752;2023-11-19T14:11:55;7.60;;;4.05;;
80231;SDS011;74189;42.124;24.752;2023-11-19T14:14:22;7.85;;;3.67;;
80231;SDS011;74189;42.124;24.752;2023-11-19T14:16:47;6.60;;;3.80;;
80231;SDS011;74189;42.124;24.752;2023-11-19T14:19:13;7.70;;;4.15;;
80231;SDS011;74189;42.124;24.752;2023-11-19T14:21:39;7.10;;;3.65;;
80231;SDS011;74189;42.124;24.752;2023-11-19T14:24:05;3.97;;;3.40;;
80231;SDS011;74189;42.124;24.752;2023-11-19T14:26:31;5.85;;;3.80;;
80231;SDS011;74189;42.124;24.752;2023-11-19T14:28:56;5.57;;;3.97;;
80231;SDS011;74189;42.124;24.752;2023-11-19T14:31:22;7.82;;;4.20;;
80231;SDS011;74189;42.124;24.752;2023-11-19T14:33:48;6.97;;;3.88;;
80231;SDS011;74189;42.124;24.752;2023-11-19T14:36:14;7.15;;;4.32;;
80231;SDS011;74189;42.124;24.752;2023-11-19T14:38:40;7.72;;;4.65;;
80231;SDS011;74189;42.124;24.752;2023-11-19T14:41:06;6.10;;;4.40;;
80231;SDS011;74189;42.124;24.752;2023-11-19T14:43:32;8.38;;;4.68;;
80231;SDS011;74189;42.124;24.752;2023-11-19T14:45:58;14.07;;;4.38;;
80231;SDS011;74189;42.124;24.752;2023-11-19T14:48:23;7.10;;;4.78;;
80231;SDS011;74189;42.124;24.752;2023-11-19T14:50:49;6.75;;;4.75;;
80231;SDS011;74189;42.124;24.752;2023-11-19T14:53:15;6.90;;;4.70;;
80231;SDS011;74189;42.124;24.752;2023-11-19T14:55:41;9.77;;;5.05;;
80231;SDS011;74189;42.124;24.752;2023-11-19T14:58:06;5.60;;;4.53;;